createdAt,value
2023-08-29T00:00:21.348Z,14.80
2023-08-29T00:02:49.557Z,14.80
2023-08-29T00:05:16.614Z,14.80
2023-08-29T00:07:43.773Z,14.80
2023-08-29T00:10:11.137Z,14.80
2023-08-29T00:12:38.206Z,14.80
2023-08-29T00:15:06.956Z,14.80
2023-08-29T00:17:33.950Z,14.80
2023-08-29T00:20:01.979Z,14.80
2023-08-29T00:22:29.209Z,14.90
2023-08-29T00:24:57.953Z,14.90
2023-08-29T00:27:25.078Z,14.90
2023-08-29T00:29:51.997Z,14.90
2023-08-29T00:32:18.807Z,14.90
2023-08-29T00:34:45.641Z,14.90
2023-08-29T00:37:12.584Z,14.90
2023-08-29T00:39:39.650Z,14.90
2023-08-29T00:42:06.933Z,14.90
2023-08-29T00:44:33.944Z,14.90
2023-08-29T00:47:01.025Z,14.90
2023-08-29T00:49:29.362Z,14.90
2023-08-29T00:51:56.429Z,14.80
2023-08-29T00:54:26.664Z,14.70
2023-08-29T00:56:53.660Z,14.60
2023-08-29T00:59:22.164Z,14.60
2023-08-29T01:01:49.867Z,14.60
2023-08-29T01:04:16.939Z,14.50
2023-08-29T01:06:43.978Z,14.50
2023-08-29T01:09:11.208Z,14.40
2023-08-29T01:11:54.345Z,14.40
2023-08-29T01:14:31.470Z,14.30
2023-08-29T01:17:23.413Z,14.30
2023-08-29T01:19:53.563Z,14.30
2023-08-29T01:22:26.611Z,14.20
2023-08-29T01:24:56.434Z,14.20
2023-08-29T01:27:23.510Z,14.20
2023-08-29T01:29:50.913Z,14.10
2023-08-29T01:32:18.538Z,14.10
2023-08-29T01:34:45.876Z,14.00
2023-08-29T01:37:13.159Z,14.00
2023-08-29T01:39:40.128Z,14.00
2023-08-29T01:42:07.349Z,14.10
2023-08-29T01:44:34.294Z,14.10
2023-08-29T01:47:01.566Z,14.10
2023-08-29T01:49:29.165Z,14.10
2023-08-29T01:51:56.200Z,14.10
2023-08-29T01:54:23.213Z,14.10
2023-08-29T01:56:51.601Z,14.10
2023-08-29T01:59:19.224Z,14.10
2023-08-29T02:01:46.250Z,14.20
2023-08-29T02:04:13.661Z,14.20
2023-08-29T02:06:43.543Z,14.20
2023-08-29T02:09:10.604Z,14.20
2023-08-29T02:11:37.512Z,14.30
2023-08-29T02:14:04.717Z,14.30
2023-08-29T02:16:32.935Z,14.40
2023-08-29T02:19:00.419Z,14.40
2023-08-29T02:21:28.185Z,14.40
2023-08-29T02:23:55.306Z,14.40
2023-08-29T02:26:22.156Z,14.40
2023-08-29T02:28:54.095Z,14.40
2023-08-29T02:31:21.855Z,14.40
2023-08-29T02:33:49.210Z,14.40
2023-08-29T02:36:16.313Z,14.50
2023-08-29T02:38:43.258Z,14.50
2023-08-29T02:41:13.063Z,14.50
2023-08-29T02:43:40.159Z,14.50
2023-08-29T02:46:07.156Z,14.50
2023-08-29T02:48:34.202Z,14.50
2023-08-29T02:51:01.240Z,14.60
2023-08-29T02:53:28.234Z,14.70
2023-08-29T02:55:55.328Z,14.60
2023-08-29T02:58:22.621Z,14.60
2023-08-29T03:01:05.038Z,14.60
2023-08-29T03:03:32.409Z,14.50
2023-08-29T03:06:00.795Z,14.60
2023-08-29T03:08:28.160Z,14.50
2023-08-29T03:10:55.455Z,14.50
2023-08-29T03:13:23.203Z,14.50
2023-08-29T03:15:50.461Z,14.50
2023-08-29T03:18:17.424Z,14.60
2023-08-29T03:20:45.774Z,14.60
2023-08-29T03:23:13.010Z,14.60
2023-08-29T03:25:40.573Z,14.60
2023-08-29T03:28:08.124Z,14.60
2023-08-29T03:30:35.502Z,14.60
2023-08-29T03:33:03.027Z,14.70
2023-08-29T03:35:30.334Z,14.70
2023-08-29T03:37:57.472Z,14.70
2023-08-29T03:40:24.461Z,14.70
2023-08-29T03:42:51.496Z,14.80
2023-08-29T03:45:19.797Z,14.80
2023-08-29T03:47:47.068Z,14.80
2023-08-29T03:50:14.057Z,14.70
2023-08-29T03:52:41.242Z,14.70
2023-08-29T03:55:08.706Z,14.70
2023-08-29T03:57:35.876Z,14.70
2023-08-29T04:00:08.328Z,14.70
2023-08-29T04:02:35.317Z,14.70
2023-08-29T04:05:19.559Z,14.60
2023-08-29T04:07:46.928Z,14.60
2023-08-29T04:10:14.436Z,14.60
2023-08-29T04:12:41.674Z,14.70
2023-08-29T04:15:08.890Z,14.70
2023-08-29T04:17:35.919Z,14.70
2023-08-29T04:20:09.786Z,14.60
2023-08-29T04:22:37.493Z,14.60
2023-08-29T04:25:08.081Z,14.60
2023-08-29T04:27:36.469Z,14.50
2023-08-29T04:30:04.718Z,14.60
2023-08-29T04:32:35.702Z,14.60
2023-08-29T04:35:02.772Z,14.50
2023-08-29T04:37:29.774Z,14.60
2023-08-29T04:39:56.923Z,14.50
2023-08-29T04:42:23.909Z,14.40
2023-08-29T04:44:52.595Z,14.40
2023-08-29T04:47:19.569Z,14.40
2023-08-29T04:49:46.999Z,14.40
2023-08-29T04:52:13.903Z,14.50
2023-08-29T04:54:41.270Z,14.50
2023-08-29T04:57:08.622Z,14.50
2023-08-29T04:59:35.531Z,14.50
2023-08-29T05:02:02.562Z,14.50
2023-08-29T05:04:29.975Z,14.50
2023-08-29T05:06:57.163Z,14.50
2023-08-29T05:09:25.272Z,14.60
2023-08-29T05:11:52.315Z,14.60
2023-08-29T05:14:19.527Z,14.60
2023-08-29T05:16:46.443Z,14.70
2023-08-29T05:19:13.452Z,14.70
2023-08-29T05:21:41.250Z,14.70
2023-08-29T05:24:08.330Z,14.70
2023-08-29T05:26:35.499Z,14.70
2023-08-29T05:29:02.839Z,14.70
2023-08-29T05:31:30.999Z,14.80
2023-08-29T05:33:58.079Z,14.80
2023-08-29T05:36:25.317Z,14.80
2023-08-29T05:38:52.270Z,14.90
2023-08-29T05:41:20.564Z,14.80
2023-08-29T05:43:47.608Z,14.80
2023-08-29T05:46:14.580Z,14.80
2023-08-29T05:48:41.588Z,14.80
2023-08-29T05:51:08.454Z,14.80
2023-08-29T05:53:35.410Z,14.80
2023-08-29T05:56:02.471Z,14.80
2023-08-29T05:58:29.470Z,14.80
2023-08-29T06:00:56.734Z,14.80
2023-08-29T06:03:23.842Z,14.80
2023-08-29T06:05:51.050Z,14.80
2023-08-29T06:08:20.572Z,14.90
2023-08-29T06:10:49.037Z,14.90
2023-08-29T06:13:16.070Z,14.90
2023-08-29T06:15:43.753Z,14.90
2023-08-29T06:18:11.562Z,14.90
2023-08-29T06:20:38.886Z,14.90
2023-08-29T06:23:06.552Z,14.90
2023-08-29T06:25:33.678Z,14.90
2023-08-29T06:28:01.295Z,14.90
2023-08-29T06:30:28.389Z,14.90
2023-08-29T06:32:55.717Z,14.90
2023-08-29T06:35:23.139Z,15.00
2023-08-29T06:37:51.224Z,15.00
2023-08-29T06:40:18.606Z,15.00
2023-08-29T06:42:45.721Z,15.00
2023-08-29T06:45:13.025Z,14.90
2023-08-29T06:47:40.065Z,15.00
2023-08-29T06:50:07.370Z,15.00
2023-08-29T06:52:34.380Z,15.00
2023-08-29T06:55:01.262Z,14.90
2023-08-29T07:00:18.235Z,14.90
2023-08-29T07:02:45.397Z,14.90
2023-08-29T07:05:12.457Z,14.90
2023-08-29T07:07:42.430Z,14.90
2023-08-29T07:10:10.176Z,14.90
2023-08-29T07:12:37.224Z,14.90
2023-08-29T07:15:04.884Z,14.90
2023-08-29T07:17:31.809Z,14.90
2023-08-29T07:19:58.955Z,14.90
2023-08-29T07:22:25.886Z,14.90
2023-08-29T07:24:53.386Z,14.90
2023-08-29T07:27:20.969Z,14.90
2023-08-29T07:29:48.317Z,14.90
2023-08-29T07:32:16.011Z,14.90
2023-08-29T07:34:43.232Z,14.90
2023-08-29T07:37:10.269Z,14.90
2023-08-29T07:39:37.678Z,15.00
2023-08-29T07:42:05.128Z,15.00
2023-08-29T07:44:32.711Z,15.00
2023-08-29T07:49:29.706Z,15.10
2023-08-29T07:51:56.997Z,15.10
2023-08-29T07:54:24.258Z,15.10
2023-08-29T07:56:51.491Z,15.20
2023-08-29T07:59:18.467Z,15.20
2023-08-29T08:01:45.461Z,15.20
2023-08-29T08:04:12.447Z,15.20
2023-08-29T08:06:41.122Z,15.20
2023-08-29T08:09:09.421Z,15.20
2023-08-29T08:11:36.751Z,15.20
2023-08-29T08:14:04.740Z,15.20
2023-08-29T08:16:31.988Z,15.20
2023-08-29T08:19:01.399Z,15.20
2023-08-29T08:21:28.840Z,15.30
2023-08-29T08:23:56.982Z,15.30
2023-08-29T08:26:24.014Z,15.30
2023-08-29T08:28:51.081Z,15.40
2023-08-29T08:31:18.363Z,15.40
2023-08-29T08:33:45.532Z,15.50
2023-08-29T08:36:12.870Z,15.50
2023-08-29T08:38:39.884Z,15.50
2023-08-29T08:41:07.270Z,15.50
2023-08-29T08:43:34.972Z,15.50
2023-08-29T08:46:02.680Z,15.50
2023-08-29T08:48:30.964Z,15.50
2023-08-29T08:50:59.442Z,15.50
2023-08-29T08:53:29.022Z,15.60
2023-08-29T08:55:56.397Z,15.60
2023-08-29T08:58:23.874Z,15.60
2023-08-29T09:00:50.921Z,15.70
2023-08-29T09:03:18.490Z,15.70
2023-08-29T09:05:45.610Z,15.70
2023-08-29T09:08:12.579Z,15.80
2023-08-29T09:10:41.057Z,15.80
2023-08-29T09:13:15.757Z,15.80
2023-08-29T09:15:43.118Z,15.90
2023-08-29T09:18:14.987Z,15.80
2023-08-29T09:20:45.110Z,15.90
2023-08-29T09:23:22.759Z,15.90
2023-08-29T09:25:59.751Z,16.00
2023-08-29T09:28:30.523Z,16.00
2023-08-29T09:31:06.426Z,16.00
2023-08-29T09:33:34.530Z,16.10
2023-08-29T09:36:03.342Z,16.00
2023-08-29T09:38:31.882Z,16.10
2023-08-29T09:40:59.651Z,16.20
2023-08-29T09:43:29.256Z,16.20
2023-08-29T09:45:59.546Z,16.30
2023-08-29T09:48:29.630Z,16.20
2023-08-29T09:50:58.394Z,16.20
2023-08-29T09:53:25.928Z,16.20
2023-08-29T09:56:06.632Z,16.20
2023-08-29T09:58:34.484Z,16.20
2023-08-29T10:01:02.071Z,16.20
2023-08-29T10:03:30.156Z,16.30
2023-08-29T10:06:00.980Z,16.30
2023-08-29T10:08:34.900Z,16.30
2023-08-29T10:11:03.056Z,16.30
2023-08-29T10:13:30.452Z,16.30
2023-08-29T10:15:59.746Z,16.40
2023-08-29T10:18:28.818Z,16.30
2023-08-29T10:20:58.115Z,16.30
2023-08-29T10:23:25.207Z,16.30
2023-08-29T10:25:53.165Z,16.30
2023-08-29T10:28:21.727Z,16.30
2023-08-29T10:30:54.835Z,16.30
2023-08-29T10:33:24.067Z,16.20
2023-08-29T10:35:51.314Z,16.20
2023-08-29T10:38:19.003Z,16.20
2023-08-29T10:40:47.513Z,16.20
2023-08-29T10:43:22.291Z,16.10
2023-08-29T10:45:49.417Z,16.10
2023-08-29T10:48:43.949Z,16.10
2023-08-29T10:51:14.982Z,16.10
2023-08-29T10:53:50.732Z,16.10
2023-08-29T10:56:21.240Z,16.00
2023-08-29T10:58:51.881Z,15.90
2023-08-29T11:01:37.642Z,15.90
2023-08-29T11:04:17.578Z,15.90
2023-08-29T11:07:01.012Z,16.00
2023-08-29T11:09:29.541Z,16.00
2023-08-29T11:12:17.322Z,16.10
2023-08-29T11:14:57.701Z,16.10
2023-08-29T11:17:26.809Z,16.10
2023-08-29T11:19:59.400Z,16.10
2023-08-29T11:22:30.585Z,16.20
2023-08-29T11:24:59.066Z,16.20
2023-08-29T11:27:27.495Z,16.20
2023-08-29T11:30:10.042Z,16.20
2023-08-29T11:32:42.250Z,16.20
2023-08-29T11:35:13.417Z,16.20
2023-08-29T11:37:41.814Z,16.20
2023-08-29T11:40:12.043Z,16.30
2023-08-29T11:43:08.851Z,16.30
2023-08-29T11:45:45.890Z,16.30
2023-08-29T11:48:21.490Z,16.30
2023-08-29T11:50:48.813Z,16.40
2023-08-29T11:53:29.900Z,16.40
2023-08-29T11:55:59.233Z,16.30
2023-08-29T11:58:28.822Z,16.30
2023-08-29T12:00:57.157Z,16.40
2023-08-29T12:03:26.951Z,16.40
2023-08-29T12:06:00.323Z,16.40
2023-08-29T12:08:46.919Z,16.40
2023-08-29T12:11:17.138Z,16.40
2023-08-29T12:14:02.861Z,16.40
2023-08-29T12:16:30.056Z,16.40
2023-08-29T12:19:07.684Z,16.40
2023-08-29T12:21:34.637Z,16.40
2023-08-29T12:24:12.750Z,16.40
2023-08-29T12:26:39.952Z,16.40
2023-08-29T12:29:08.325Z,16.40
2023-08-29T12:31:36.108Z,16.40
2023-08-29T12:34:03.308Z,16.40
2023-08-29T12:36:30.303Z,16.50
2023-08-29T12:38:58.343Z,16.50
2023-08-29T12:41:25.211Z,16.50
2023-08-29T12:43:52.313Z,16.50
2023-08-29T12:46:19.285Z,16.50
2023-08-29T12:48:46.561Z,16.50
2023-08-29T12:51:13.633Z,16.50
2023-08-29T12:53:41.348Z,16.50
2023-08-29T12:56:10.659Z,16.50
2023-08-29T12:58:40.926Z,16.60
2023-08-29T13:01:08.514Z,16.60
2023-08-29T13:03:39.313Z,16.60
2023-08-29T13:06:08.449Z,16.60
2023-08-29T13:08:35.739Z,16.70
2023-08-29T13:11:02.838Z,16.70
2023-08-29T13:13:30.167Z,16.60
2023-08-29T13:15:57.332Z,16.50
2023-08-29T13:18:24.853Z,16.50
2023-08-29T13:20:51.926Z,16.50
2023-08-29T13:23:18.899Z,16.50
2023-08-29T13:25:46.099Z,16.50
2023-08-29T13:28:15.312Z,16.50
2023-08-29T13:30:42.500Z,16.70
2023-08-29T13:33:09.573Z,16.60
2023-08-29T13:35:36.862Z,16.60
2023-08-29T13:38:03.969Z,16.60
2023-08-29T13:40:30.915Z,16.60
2023-08-29T13:42:57.913Z,16.60
2023-08-29T13:45:25.085Z,16.70
2023-08-29T13:47:53.111Z,16.70
2023-08-29T13:50:20.669Z,16.80
2023-08-29T13:52:50.816Z,16.80
2023-08-29T13:55:17.751Z,16.80
2023-08-29T13:57:45.177Z,16.80
2023-08-29T14:00:13.066Z,16.80
2023-08-29T14:02:40.724Z,16.80
2023-08-29T14:05:08.974Z,16.80
2023-08-29T14:07:39.412Z,16.80
2023-08-29T14:10:13.715Z,16.70
2023-08-29T14:12:41.466Z,16.70
2023-08-29T14:15:08.834Z,16.70
2023-08-29T14:17:35.786Z,16.70
2023-08-29T14:20:06.604Z,16.70
2023-08-29T14:22:34.131Z,16.70
2023-08-29T14:25:01.143Z,16.80
2023-08-29T14:27:28.941Z,16.80
2023-08-29T14:29:59.086Z,16.80
2023-08-29T14:32:27.493Z,16.80
2023-08-29T14:34:54.394Z,16.80
2023-08-29T14:37:21.351Z,16.80
2023-08-29T14:39:48.484Z,16.80
2023-08-29T14:42:15.637Z,16.80
2023-08-29T14:44:42.871Z,16.80
2023-08-29T14:47:09.943Z,16.80
2023-08-29T14:49:37.468Z,16.80
2023-08-29T14:52:05.158Z,16.80
2023-08-29T14:54:32.071Z,16.80
2023-08-29T14:57:16.844Z,16.70
2023-08-29T14:59:43.866Z,16.80
2023-08-29T15:02:13.200Z,16.70
2023-08-29T15:04:40.365Z,16.70
2023-08-29T15:07:07.626Z,16.70
2023-08-29T15:09:34.700Z,16.70
2023-08-29T15:12:01.772Z,16.70
2023-08-29T15:14:34.490Z,16.70
2023-08-29T15:17:01.992Z,16.70
2023-08-29T15:19:29.334Z,16.70
2023-08-29T15:21:56.226Z,16.70
2023-08-29T15:24:24.415Z,16.70
2023-08-29T15:26:51.682Z,16.70
2023-08-29T15:29:18.709Z,16.70
2023-08-29T15:31:45.850Z,16.80
2023-08-29T15:34:13.031Z,16.70
2023-08-29T15:36:40.008Z,16.70
2023-08-29T15:39:09.209Z,16.60
2023-08-29T15:41:36.529Z,16.70
2023-08-29T15:44:03.911Z,16.60
2023-08-29T15:46:31.058Z,16.60
2023-08-29T15:48:58.071Z,16.60
2023-08-29T15:51:25.352Z,16.70
2023-08-29T15:53:56.178Z,16.70
2023-08-29T15:56:47.495Z,16.60
2023-08-29T15:59:14.840Z,16.60
2023-08-29T16:01:42.754Z,16.70
2023-08-29T16:04:10.605Z,16.70
2023-08-29T16:06:37.836Z,16.70
2023-08-29T16:09:05.341Z,16.70
2023-08-29T16:11:32.418Z,16.80
2023-08-29T16:13:59.540Z,16.80
2023-08-29T16:16:26.663Z,16.80
2023-08-29T16:18:53.837Z,16.80
2023-08-29T16:21:20.880Z,16.70
2023-08-29T16:23:47.912Z,16.80
2023-08-29T16:26:18.877Z,16.80
2023-08-29T16:28:46.257Z,16.70
2023-08-29T16:31:14.697Z,16.70
2023-08-29T16:33:41.727Z,16.70
2023-08-29T16:36:09.171Z,16.70
2023-08-29T16:38:36.421Z,16.70
2023-08-29T16:41:03.749Z,16.60
2023-08-29T16:43:31.516Z,16.60
2023-08-29T16:45:58.478Z,16.60
2023-08-29T16:48:25.625Z,16.70
2023-08-29T16:50:52.868Z,16.70
2023-08-29T16:53:21.138Z,16.60
2023-08-29T16:55:49.501Z,16.70
2023-08-29T16:58:16.506Z,16.60
2023-08-29T17:00:43.659Z,16.50
2023-08-29T17:03:12.291Z,16.50
2023-08-29T17:05:39.855Z,16.40
2023-08-29T17:08:08.712Z,16.40
2023-08-29T17:10:36.581Z,16.40
2023-08-29T17:13:04.176Z,16.30
2023-08-29T17:15:31.127Z,16.30
2023-08-29T17:17:58.085Z,16.30
2023-08-29T17:20:25.190Z,16.30
2023-08-29T17:22:52.578Z,16.20
2023-08-29T17:25:19.594Z,16.20
2023-08-29T17:27:46.726Z,16.20
2023-08-29T17:30:14.001Z,16.20
2023-08-29T17:32:41.589Z,16.20
2023-08-29T17:35:08.915Z,16.20
2023-08-29T17:37:40.381Z,16.20
2023-08-29T17:40:09.487Z,16.10
2023-08-29T17:42:36.543Z,16.10
2023-08-29T17:45:06.306Z,16.10
2023-08-29T17:47:36.264Z,16.10
2023-08-29T17:50:07.820Z,16.10
2023-08-29T17:52:34.889Z,16.10
2023-08-29T17:55:03.299Z,16.10
2023-08-29T17:57:30.270Z,16.00
2023-08-29T17:59:58.484Z,16.00
2023-08-29T18:02:26.912Z,16.00
2023-08-29T18:04:54.662Z,16.00
2023-08-29T18:07:22.263Z,15.90
2023-08-29T18:10:14.538Z,15.90
2023-08-29T18:12:42.064Z,15.90
2023-08-29T18:15:10.616Z,15.90
2023-08-29T18:17:37.743Z,15.90
2023-08-29T18:20:05.288Z,15.90
2023-08-29T18:22:33.097Z,15.90
2023-08-29T18:25:00.037Z,15.90
2023-08-29T18:27:27.391Z,15.80
2023-08-29T18:29:54.883Z,15.80
2023-08-29T18:32:21.893Z,15.80
2023-08-29T18:34:51.367Z,15.80
2023-08-29T18:37:18.373Z,15.80
2023-08-29T18:39:45.654Z,15.80
2023-08-29T18:42:12.848Z,15.80
2023-08-29T18:44:39.716Z,15.80
2023-08-29T18:47:07.380Z,15.80
2023-08-29T18:49:36.879Z,15.80
2023-08-29T18:52:04.642Z,15.80
2023-08-29T18:54:35.154Z,15.80
2023-08-29T18:57:02.236Z,15.80
2023-08-29T18:59:29.339Z,15.80
2023-08-29T19:01:58.610Z,15.80
2023-08-29T19:04:25.712Z,15.80
2023-08-29T19:06:53.753Z,15.70
2023-08-29T19:09:21.043Z,15.70
2023-08-29T19:11:50.588Z,15.70
2023-08-29T19:14:18.821Z,15.70
2023-08-29T19:16:45.907Z,15.70
2023-08-29T19:19:12.973Z,15.60
2023-08-29T19:21:40.284Z,15.60
2023-08-29T19:24:08.770Z,15.60
2023-08-29T19:26:37.091Z,15.60
2023-08-29T19:29:04.837Z,15.60
2023-08-29T19:31:32.130Z,15.50
2023-08-29T19:33:59.314Z,15.50
2023-08-29T19:36:26.714Z,15.50
2023-08-29T19:39:02.087Z,15.50
2023-08-29T19:41:35.761Z,15.50
2023-08-29T19:44:02.707Z,15.50
2023-08-29T19:46:29.719Z,15.50
2023-08-29T19:48:56.781Z,15.50
2023-08-29T19:51:24.686Z,15.50
2023-08-29T19:53:51.724Z,15.50
2023-08-29T19:56:18.922Z,15.50
2023-08-29T19:58:46.208Z,15.50
2023-08-29T20:01:14.799Z,15.50
2023-08-29T20:03:42.583Z,15.40
2023-08-29T20:06:11.459Z,15.50
2023-08-29T20:08:40.176Z,15.40
2023-08-29T20:11:07.438Z,15.40
2023-08-29T20:13:34.918Z,15.40
2023-08-29T20:16:07.991Z,15.40
2023-08-29T20:18:35.418Z,15.40
2023-08-29T20:21:02.489Z,15.40
2023-08-29T20:23:29.708Z,15.40
2023-08-29T20:25:56.894Z,15.40
2023-08-29T20:28:24.194Z,15.30
2023-08-29T20:30:54.538Z,15.30
2023-08-29T20:33:24.762Z,15.30
2023-08-29T20:35:52.565Z,15.30
2023-08-29T20:38:19.645Z,15.30
2023-08-29T20:40:46.560Z,15.30
2023-08-29T20:43:13.724Z,15.30
2023-08-29T20:45:42.309Z,15.30
2023-08-29T20:48:09.643Z,15.30
2023-08-29T20:50:38.714Z,15.30
2023-08-29T20:53:05.725Z,15.30
2023-08-29T20:55:32.700Z,15.30
2023-08-29T20:58:01.008Z,15.30
2023-08-29T21:00:28.090Z,15.30
2023-08-29T21:02:56.558Z,15.30
2023-08-29T21:05:23.433Z,15.30
2023-08-29T21:07:50.773Z,15.30
2023-08-29T21:10:17.891Z,15.30
2023-08-29T21:12:45.659Z,15.30
2023-08-29T21:15:13.783Z,15.30
2023-08-29T21:17:41.026Z,15.30
2023-08-29T21:20:08.960Z,15.30
2023-08-29T21:22:36.241Z,15.20
2023-08-29T21:25:03.947Z,15.30
2023-08-29T21:27:30.843Z,15.30
2023-08-29T21:29:57.845Z,15.30
2023-08-29T21:32:24.881Z,15.30
2023-08-29T21:34:52.158Z,15.30
2023-08-29T21:37:19.510Z,15.30
2023-08-29T21:39:46.708Z,15.30
2023-08-29T21:42:13.665Z,15.30
2023-08-29T21:44:40.824Z,15.30
2023-08-29T21:47:07.770Z,15.30
2023-08-29T21:49:35.049Z,15.30
2023-08-29T21:52:01.989Z,15.30
2023-08-29T21:54:28.883Z,15.30
2023-08-29T21:56:55.756Z,15.30
2023-08-29T21:59:22.942Z,15.30
2023-08-29T22:01:53.529Z,15.30
2023-08-29T22:04:20.996Z,15.30
2023-08-29T22:06:47.948Z,15.30
2023-08-29T22:09:14.892Z,15.30
2023-08-29T22:11:42.216Z,15.30
2023-08-29T22:14:11.329Z,15.30
2023-08-29T22:16:38.307Z,15.30
2023-08-29T22:19:05.658Z,15.30
2023-08-29T22:21:32.910Z,15.30
2023-08-29T22:24:00.008Z,15.20
2023-08-29T22:26:27.326Z,15.20
2023-08-29T22:28:54.159Z,15.20
2023-08-29T22:31:21.838Z,15.20
2023-08-29T22:33:49.013Z,15.20
2023-08-29T22:36:15.950Z,15.20
2023-08-29T22:38:43.240Z,15.20
2023-08-29T22:41:21.272Z,15.20
2023-08-29T22:43:56.410Z,15.20
2023-08-29T22:46:23.693Z,15.10
2023-08-29T22:48:50.893Z,15.10
2023-08-29T22:51:18.168Z,15.10
2023-08-29T22:53:47.739Z,15.20
2023-08-29T22:56:14.686Z,15.20
2023-08-29T22:58:41.766Z,15.10
2023-08-29T23:01:10.368Z,15.10
2023-08-29T23:03:37.371Z,15.10
2023-08-29T23:06:04.413Z,15.10
2023-08-29T23:08:31.557Z,15.10
2023-08-29T23:10:58.921Z,15.10
2023-08-29T23:13:28.205Z,15.10
2023-08-29T23:15:55.756Z,15.10
2023-08-29T23:18:23.376Z,15.10
2023-08-29T23:20:52.645Z,15.00
2023-08-29T23:23:19.764Z,15.00
2023-08-29T23:25:54.133Z,15.10
2023-08-29T23:28:21.230Z,15.10
2023-08-29T23:30:51.400Z,15.10
2023-08-29T23:33:18.652Z,15.10
2023-08-29T23:35:45.659Z,15.10
2023-08-29T23:38:12.896Z,15.10
2023-08-29T23:40:39.878Z,15.10
2023-08-29T23:43:07.763Z,15.10
2023-08-29T23:45:35.006Z,15.10
2023-08-29T23:48:03.662Z,15.10
2023-08-29T23:50:30.679Z,15.10
2023-08-29T23:52:59.483Z,15.10
2023-08-29T23:55:27.034Z,15.10
2023-08-29T23:57:54.005Z,15.00
